Time;durP1;ratioP1;P1;durP2;ratioP2;P2;SDS_P1;SDS_P2;PMS_P1;PMS_P2;Temp;Humidity;BMP_temperature;BMP_pressure;BME280_temperature;BME280_humidity;BME280_pressure;Samples;Min_cycle;Max_cycle;Signal;HPM_P1;HPM_P2
2023/12/24 00:02:22;;;;;;;3.10;2.00;;;;;;;;;;2614647;54;20418;-78
2023/12/24 00:07:52;;;;;;;4.60;2.13;;;;;;;;;;2615166;54;20502;-78
2023/12/24 00:13:22;;;;;;;5.40;3.13;;;;;;;;;;2615112;39;20840;-79
2023/12/24 00:18:51;;;;;;;4.00;2.27;;;;;;;;;;2614450;54;20386;-77
2023/12/24 00:24:22;;;;;;;6.70;2.97;;;;;;;;;;2615712;39;20639;-76
2023/12/24 00:29:51;;;;;;;5.30;2.70;;;;;;;;;;2614860;54;20416;-78
2023/12/24 00:35:21;;;;;;;5.23;2.60;;;;;;;;;;2614462;39;20852;-77
2023/12/24 00:40:51;;;;;;;3.07;2.00;;;;;;;;;;2614086;54;20994;-78
2023/12/24 00:46:21;;;;;;;5.40;2.30;;;;;;;;;;2614636;39;20726;-79
2023/12/24 00:57:57;;;;;;;4.33;2.00;;;;;;;;;;2613922;54;20378;-79
2023/12/24 01:03:27;;;;;;;3.50;2.23;;;;;;;;;;2614208;54;20383;-78
2023/12/24 01:08:57;;;;;;;3.27;1.50;;;;;;;;;;2614870;54;20378;-80
2023/12/24 01:14:26;;;;;;;4.20;2.20;;;;;;;;;;2614641;54;20388;-78
2023/12/24 01:19:57;;;;;;;8.57;2.70;;;;;;;;;;2614855;54;20379;-78
2023/12/24 01:25:27;;;;;;;12.10;2.40;;;;;;;;;;2614010;54;20394;-79
2023/12/24 01:31:00;;;;;;;3.50;2.00;;;;;;;;;;2614516;54;20378;-77
2023/12/24 01:36:29;;;;;;;4.00;2.30;;;;;;;;;;2615098;54;20361;-77
2023/12/24 01:41:59;;;;;;;3.90;2.33;;;;;;;;;;2614641;54;20414;-78
2023/12/24 01:47:29;;;;;;;5.00;2.50;;;;;;;;;;2614855;54;20454;-79
2023/12/24 01:56:39;;;;;;;6.20;2.80;;;;;;;;;;2613914;54;20390;-75
2023/12/24 02:02:10;;;;;;;4.70;3.07;;;;;;;;;;2613747;54;20399;-75
2023/12/24 02:07:40;;;;;;;9.03;2.67;;;;;;;;;;2613995;54;20433;-75
2023/12/24 02:13:12;;;;;;;3.93;2.53;;;;;;;;;;2614324;54;20401;-75
2023/12/24 02:18:42;;;;;;;6.27;3.10;;;;;;;;;;2614758;54;20436;-75
2023/12/24 02:24:12;;;;;;;3.90;1.93;;;;;;;;;;2613190;54;20957;-76
2023/12/24 02:29:44;;;;;;;7.00;2.90;;;;;;;;;;2614785;54;20895;-74
2023/12/24 02:35:14;;;;;;;2.90;1.13;;;;;;;;;;2614681;39;20733;-75
2023/12/24 02:40:44;;;;;;;2.50;0.70;;;;;;;;;;2614218;54;20401;-75
2023/12/24 02:46:14;;;;;;;1.80;1.60;;;;;;;;;;2615570;39;20719;-74
2023/12/24 02:51:43;;;;;;;2.97;1.57;;;;;;;;;;2614293;54;20394;-75
2023/12/24 02:57:13;;;;;;;3.57;0.97;;;;;;;;;;2613454;54;20440;-76
2023/12/24 03:02:43;;;;;;;3.10;1.20;;;;;;;;;;2614425;54;20402;-74
2023/12/24 03:08:15;;;;;;;6.27;1.53;;;;;;;;;;2615033;54;20419;-75
2023/12/24 03:13:45;;;;;;;12.40;2.87;;;;;;;;;;2614901;39;20743;-74
2023/12/24 03:19:15;;;;;;;2.53;1.77;;;;;;;;;;2614026;54;20359;-75
2023/12/24 03:24:44;;;;;;;2.30;1.17;;;;;;;;;;2615152;54;20962;-74
2023/12/24 03:27:29;;;;;;;1.63;1.03;;;;;;;;;;2611326;54;20422;-74
2023/12/24 03:29:55;;;;;;;3.40;1.17;;;;;;;;;;2614528;54;20518;-75
2023/12/24 03:35:25;;;;;;;8.63;1.37;;;;;;;;;;2613861;54;20409;-76
2023/12/24 03:40:55;;;;;;;3.60;1.30;;;;;;;;;;2613599;54;20978;-74
2023/12/24 03:46:24;;;;;;;2.43;1.50;;;;;;;;;;2614214;54;20450;-74
2023/12/24 03:51:54;;;;;;;2.07;1.00;;;;;;;;;;2614102;54;20972;-74
2023/12/24 04:06:46;;;;;;;1.40;1.00;;;;;;;;;;2613017;54;20465;-74
2023/12/24 04:12:15;;;;;;;1.90;0.80;;;;;;;;;;2611929;54;20406;-75
2023/12/24 04:17:45;;;;;;;1.40;0.80;;;;;;;;;;2612050;54;20353;-75
2023/12/24 04:23:14;;;;;;;1.13;0.57;;;;;;;;;;2611557;54;20512;-75
2023/12/24 04:28:43;;;;;;;1.17;0.70;;;;;;;;;;2611199;54;21243;-75
2023/12/24 04:34:12;;;;;;;0.97;0.60;;;;;;;;;;2610987;54;20427;-74
2023/12/24 04:39:41;;;;;;;1.27;0.80;;;;;;;;;;2611850;54;20382;-75
2023/12/24 04:45:11;;;;;;;1.10;0.60;;;;;;;;;;2613190;54;20378;-74
2023/12/24 04:50:41;;;;;;;0.80;0.40;;;;;;;;;;2612644;54;20398;-75
2023/12/24 04:56:24;;;;;;;1.17;0.80;;;;;;;;;;2612530;54;20424;-75
2023/12/24 05:01:53;;;;;;;0.80;0.40;;;;;;;;;;2613172;54;20351;-75
2023/12/24 05:07:24;;;;;;;0.90;0.60;;;;;;;;;;2612563;54;20404;-77
2023/12/24 05:12:53;;;;;;;1.60;0.63;;;;;;;;;;2613849;39;20780;-75
2023/12/24 05:18:23;;;;;;;7.33;1.00;;;;;;;;;;2613700;54;20512;-75
2023/12/24 05:23:53;;;;;;;1.57;0.83;;;;;;;;;;2612475;54;20364;-76
2023/12/24 05:29:22;;;;;;;1.20;0.73;;;;;;;;;;2612462;54;20367;-75
2023/12/24 05:34:52;;;;;;;1.00;0.40;;;;;;;;;;2612481;54;20362;-75
2023/12/24 05:40:23;;;;;;;1.13;0.60;;;;;;;;;;2613360;54;20379;-75
2023/12/24 05:45:52;;;;;;;1.43;0.60;;;;;;;;;;2612826;46;20438;-75
2023/12/24 05:51:22;;;;;;;0.70;0.40;;;;;;;;;;2612557;54;20393;-75
2023/12/24 06:03:00;;;;;;;0.90;0.53;;;;;;;;;;2613217;54;20915;-76
2023/12/24 06:08:31;;;;;;;0.80;0.47;;;;;;;;;;2613580;54;20379;-76
2023/12/24 06:14:01;;;;;;;1.00;0.60;;;;;;;;;;2612116;54;20399;-75
2023/12/24 06:19:30;;;;;;;0.90;0.50;;;;;;;;;;2613399;54;20490;-76
2023/12/24 06:25:00;;;;;;;1.30;1.07;;;;;;;;;;2612918;54;20363;-75
2023/12/24 06:30:30;;;;;;;2.20;0.50;;;;;;;;;;2612892;54;20921;-75
2023/12/24 06:35:59;;;;;;;0.90;0.50;;;;;;;;;;2613287;31;20777;-76
2023/12/24 06:41:29;;;;;;;1.17;0.57;;;;;;;;;;2612118;54;21031;-78
2023/12/24 06:46:59;;;;;;;1.10;0.60;;;;;;;;;;2612604;54;20395;-76
2023/12/24 06:52:29;;;;;;;1.00;0.50;;;;;;;;;;2612455;54;20407;-75
2023/12/24 07:04:06;;;;;;;1.13;0.70;;;;;;;;;;2613652;39;20817;-75
2023/12/24 07:09:35;;;;;;;1.00;0.67;;;;;;;;;;2613010;54;20366;-76
2023/12/24 07:15:06;;;;;;;1.40;1.00;;;;;;;;;;2613120;54;20360;-75
2023/12/24 07:20:37;;;;;;;1.30;0.73;;;;;;;;;;2611792;54;20383;-75
2023/12/24 07:26:06;;;;;;;2.07;0.80;;;;;;;;;;2613011;54;21051;-76
2023/12/24 07:31:36;;;;;;;1.00;0.60;;;;;;;;;;2612435;54;20386;-74
2023/12/24 07:37:06;;;;;;;1.10;0.70;;;;;;;;;;2612548;54;20358;-76
2023/12/24 07:42:39;;;;;;;1.40;0.70;;;;;;;;;;2613298;54;20359;-78
2023/12/24 07:48:11;;;;;;;2.63;1.00;;;;;;;;;;2613266;46;20412;-76
2023/12/24 07:53:43;;;;;;;1.00;0.70;;;;;;;;;;2612615;39;20743;-75
2023/12/24 08:02:41;;;;;;;2.10;0.70;;;;;;;;;;2611239;54;20416;-75
2023/12/24 08:08:11;;;;;;;0.90;0.60;;;;;;;;;;2613122;54;20436;-75
2023/12/24 08:13:43;;;;;;;0.90;0.60;;;;;;;;;;2613846;54;20489;-76
2023/12/24 08:19:15;;;;;;;1.60;1.00;;;;;;;;;;2614305;54;20401;-76
2023/12/24 08:24:45;;;;;;;1.70;1.13;;;;;;;;;;2612427;54;20944;-75
2023/12/24 08:30:15;;;;;;;1.40;1.17;;;;;;;;;;2613243;54;21052;-75
2023/12/24 08:35:44;;;;;;;1.97;1.40;;;;;;;;;;2613292;54;20366;-76
2023/12/24 08:41:14;;;;;;;1.63;1.27;;;;;;;;;;2612799;54;20521;-76
2023/12/24 08:46:48;;;;;;;1.20;0.80;;;;;;;;;;2613665;54;20915;-75
2023/12/24 08:52:18;;;;;;;1.40;0.90;;;;;;;;;;2612650;54;20362;-75
2023/12/24 08:57:49;;;;;;;3.33;1.20;;;;;;;;;;2611869;54;20498;-76
2023/12/24 09:03:21;;;;;;;2.60;1.03;;;;;;;;;;2612829;54;20445;-76
2023/12/24 09:08:51;;;;;;;2.27;1.03;;;;;;;;;;2613444;54;20895;-75
2023/12/24 09:14:21;;;;;;;1.63;0.90;;;;;;;;;;2611584;54;20373;-75
2023/12/24 09:19:50;;;;;;;1.10;0.70;;;;;;;;;;2611240;54;20442;-76
2023/12/24 09:25:20;;;;;;;1.20;0.70;;;;;;;;;;2614223;31;20907;-75
2023/12/24 09:30:50;;;;;;;1.20;0.70;;;;;;;;;;2612892;39;21149;-76
2023/12/24 09:36:19;;;;;;;1.07;0.83;;;;;;;;;;2613249;39;20873;-76
2023/12/24 09:41:49;;;;;;;1.33;0.90;;;;;;;;;;2612950;54;20419;-76
2023/12/24 09:47:19;;;;;;;1.80;0.80;;;;;;;;;;2612892;54;20393;-76
2023/12/24 09:52:49;;;;;;;0.90;0.63;;;;;;;;;;2612164;54;20413;-75
2023/12/24 09:58:18;;;;;;;1.10;0.83;;;;;;;;;;2613145;54;20410;-74
2023/12/24 10:09:55;;;;;;;1.30;0.80;;;;;;;;;;2612951;54;21164;-75
2023/12/24 10:15:25;;;;;;;1.17;0.80;;;;;;;;;;2612768;54;20362;-76
2023/12/24 10:27:09;;;;;;;1.60;1.10;;;;;;;;;;2612513;54;20377;-74
2023/12/24 10:32:40;;;;;;;3.00;1.20;;;;;;;;;;2612597;54;20383;-74
2023/12/24 10:38:13;;;;;;;1.50;1.03;;;;;;;;;;2613461;54;20358;-75
2023/12/24 10:43:43;;;;;;;1.80;0.83;;;;;;;;;;2613408;54;20365;-75
2023/12/24 10:49:13;;;;;;;1.10;0.70;;;;;;;;;;2613582;54;20936;-75
2023/12/24 10:54:44;;;;;;;2.00;1.30;;;;;;;;;;2613752;39;20744;-75
2023/12/24 11:00:14;;;;;;;2.13;1.40;;;;;;;;;;2613088;54;20367;-74
2023/12/24 11:02:59;;;;;;;1.90;1.03;;;;;;;;;;2611681;54;21125;-75
2023/12/24 11:05:42;;;;;;;1.20;0.80;;;;;;;;;;2611316;54;20431;-75
2023/12/24 11:11:13;;;;;;;1.70;0.97;;;;;;;;;;2613536;54;20882;-76
2023/12/24 11:16:43;;;;;;;2.40;1.43;;;;;;;;;;2612988;54;20371;-75
2023/12/24 11:22:16;;;;;;;2.33;1.53;;;;;;;;;;2611867;54;20402;-75
2023/12/24 11:27:52;;;;;;;1.70;1.30;;;;;;;;;;2613059;39;20927;-75
2023/12/24 11:33:28;;;;;;;1.73;1.00;;;;;;;;;;2613211;54;20399;-75
2023/12/24 11:38:58;;;;;;;2.10;1.30;;;;;;;;;;2612805;54;20383;-76
2023/12/24 11:44:27;;;;;;;1.47;1.17;;;;;;;;;;2613696;54;20934;-75
2023/12/24 11:49:58;;;;;;;2.73;1.30;;;;;;;;;;2613247;54;20403;-75
2023/12/24 11:55:27;;;;;;;2.27;1.13;;;;;;;;;;2613066;39;20775;-75
2023/12/24 12:01:03;;;;;;;4.60;2.03;;;;;;;;;;2613220;39;20821;-74
2023/12/24 12:06:37;;;;;;;2.87;1.93;;;;;;;;;;2612296;54;20418;-75
2023/12/24 12:12:07;;;;;;;3.70;2.20;;;;;;;;;;2612782;54;21398;-75
2023/12/24 12:17:36;;;;;;;3.43;2.23;;;;;;;;;;2613312;54;20422;-75
2023/12/24 12:23:06;;;;;;;3.10;1.40;;;;;;;;;;2612633;54;20385;-75
2023/12/24 12:28:36;;;;;;;3.63;2.97;;;;;;;;;;2612847;54;20503;-75
2023/12/24 12:34:06;;;;;;;2.90;2.30;;;;;;;;;;2611827;39;20800;-75
2023/12/24 12:39:38;;;;;;;2.57;1.80;;;;;;;;;;2612103;54;20470;-76
2023/12/24 12:45:10;;;;;;;3.00;2.40;;;;;;;;;;2613626;39;20914;-76
2023/12/24 12:50:41;;;;;;;4.30;2.10;;;;;;;;;;2611838;54;20391;-75
2023/12/24 12:56:13;;;;;;;3.30;1.70;;;;;;;;;;2612097;54;20391;-76
2023/12/24 13:01:46;;;;;;;2.83;1.87;;;;;;;;;;2612598;46;20403;-76
2023/12/24 13:07:17;;;;;;;2.07;1.00;;;;;;;;;;2613419;54;20900;-75
2023/12/24 13:12:47;;;;;;;1.97;1.50;;;;;;;;;;2612425;39;21031;-75
2023/12/24 13:18:16;;;;;;;2.93;0.80;;;;;;;;;;2613755;39;20779;-74
2023/12/24 13:23:48;;;;;;;1.00;0.80;;;;;;;;;;2615232;54;20358;-75
2023/12/24 13:29:18;;;;;;;1.60;0.87;;;;;;;;;;2615524;54;20426;-75
2023/12/24 13:34:47;;;;;;;1.90;1.03;;;;;;;;;;2614840;39;20802;-75
2023/12/24 13:40:17;;;;;;;1.83;1.07;;;;;;;;;;2615905;39;20748;-75
2023/12/24 13:45:47;;;;;;;1.73;0.90;;;;;;;;;;2616341;54;20395;-75
2023/12/24 13:51:17;;;;;;;2.40;1.50;;;;;;;;;;2615691;54;20462;-75
2023/12/24 13:56:46;;;;;;;2.03;1.43;;;;;;;;;;2615525;54;20410;-75
2023/12/24 14:02:17;;;;;;;2.80;1.73;;;;;;;;;;2615771;54;20378;-75
2023/12/24 14:07:47;;;;;;;2.00;1.40;;;;;;;;;;2615491;54;20431;-77
2023/12/24 14:13:16;;;;;;;2.83;1.60;;;;;;;;;;2615416;54;20483;-76
2023/12/24 14:18:46;;;;;;;4.43;1.67;;;;;;;;;;2614271;54;20383;-75
2023/12/24 14:24:16;;;;;;;1.63;1.53;;;;;;;;;;2613127;54;20400;-75
2023/12/24 14:29:46;;;;;;;5.70;1.80;;;;;;;;;;2611440;54;20463;-75
2023/12/24 14:35:16;;;;;;;6.37;1.70;;;;;;;;;;2614479;54;20414;-76
2023/12/24 14:40:45;;;;;;;4.30;1.70;;;;;;;;;;2613504;54;20397;-75
2023/12/24 14:46:15;;;;;;;1.67;1.13;;;;;;;;;;2612753;46;20374;-76
2023/12/24 14:51:46;;;;;;;1.93;1.43;;;;;;;;;;2613767;54;20455;-74
2023/12/24 14:57:16;;;;;;;3.60;2.27;;;;;;;;;;2613307;39;20756;-75
2023/12/24 15:00:00;;;;;;;2.30;2.10;;;;;;;;;;2612992;54;20400;-74
2023/12/24 15:02:28;;;;;;;2.90;2.13;;;;;;;;;;2613446;54;20526;-75
2023/12/24 15:11:32;;;;;;;4.40;1.97;;;;;;;;;;2613231;54;20383;-75
2023/12/24 15:14:17;;;;;;;2.73;1.93;;;;;;;;;;2613549;54;20423;-76
2023/12/24 15:16:43;;;;;;;2.23;1.50;;;;;;;;;;2612648;47;21029;-74
2023/12/24 15:22:12;;;;;;;3.53;2.53;;;;;;;;;;2613071;54;20952;-76
2023/12/24 15:27:42;;;;;;;3.27;2.93;;;;;;;;;;2612966;54;20406;-76
2023/12/24 15:33:20;;;;;;;3.23;2.83;;;;;;;;;;2613660;39;20730;-76
2023/12/24 15:38:50;;;;;;;4.40;2.53;;;;;;;;;;2614217;54;20936;-77
2023/12/24 15:44:19;;;;;;;3.40;3.10;;;;;;;;;;2613274;54;20920;-76
2023/12/24 15:49:51;;;;;;;3.20;2.70;;;;;;;;;;2613569;54;20379;-77
2023/12/24 15:55:21;;;;;;;3.33;2.13;;;;;;;;;;2612460;54;20417;-77
2023/12/24 16:00:53;;;;;;;4.90;2.50;;;;;;;;;;2611966;54;20383;-76
2023/12/24 16:06:25;;;;;;;2.63;2.10;;;;;;;;;;2613983;54;20382;-76
2023/12/24 16:11:55;;;;;;;3.10;2.80;;;;;;;;;;2613427;54;20462;-77
2023/12/24 16:17:24;;;;;;;2.47;2.20;;;;;;;;;;2612528;54;20367;-77
2023/12/24 16:22:57;;;;;;;4.20;2.23;;;;;;;;;;2614007;54;21027;-77
2023/12/24 16:28:26;;;;;;;3.93;2.33;;;;;;;;;;2611307;54;20367;-77
2023/12/24 16:33:56;;;;;;;2.00;1.70;;;;;;;;;;2613084;46;20406;-78
2023/12/24 16:39:26;;;;;;;2.53;1.63;;;;;;;;;;2612623;54;20430;-77
2023/12/24 16:44:56;;;;;;;2.10;1.60;;;;;;;;;;2613508;54;20358;-79
2023/12/24 16:50:25;;;;;;;2.57;1.80;;;;;;;;;;2612195;54;20362;-77
2023/12/24 16:56:01;;;;;;;4.83;2.27;;;;;;;;;;2613022;54;20402;-77
2023/12/24 17:01:31;;;;;;;9.70;2.70;;;;;;;;;;2613375;54;20379;-77
2023/12/24 17:07:01;;;;;;;3.40;2.57;;;;;;;;;;2612360;54;20382;-76
2023/12/24 17:21:59;;;;;;;2.50;1.63;;;;;;;;;;2612440;54;20353;-75
2023/12/24 17:27:31;;;;;;;2.50;2.23;;;;;;;;;;2612646;54;20398;-77
2023/12/24 17:33:00;;;;;;;3.77;3.00;;;;;;;;;;2611996;54;20387;-75
2023/12/24 17:38:29;;;;;;;3.13;2.03;;;;;;;;;;2612380;47;20846;-77
2023/12/24 17:44:01;;;;;;;2.90;2.00;;;;;;;;;;2612767;54;21004;-77
2023/12/24 17:49:32;;;;;;;5.27;3.67;;;;;;;;;;2612592;54;20491;-77
2023/12/24 17:55:01;;;;;;;4.97;2.33;;;;;;;;;;2613614;54;20406;-78
2023/12/24 18:00:31;;;;;;;2.60;2.23;;;;;;;;;;2612958;54;20932;-77
2023/12/24 18:06:00;;;;;;;3.40;2.60;;;;;;;;;;2615020;54;20467;-79
2023/12/24 18:11:31;;;;;;;3.73;1.97;;;;;;;;;;2614153;54;20398;-78
2023/12/24 18:17:02;;;;;;;3.07;2.20;;;;;;;;;;2614270;39;20737;-77
2023/12/24 18:22:34;;;;;;;1.83;1.40;;;;;;;;;;2613702;54;20407;-77
2023/12/24 18:28:08;;;;;;;3.67;2.87;;;;;;;;;;2613323;54;20404;-76
2023/12/24 18:33:40;;;;;;;4.60;1.90;;;;;;;;;;2613886;54;20387;-77
2023/12/24 18:39:12;;;;;;;3.30;2.23;;;;;;;;;;2613484;54;20358;-78
2023/12/24 18:44:41;;;;;;;3.57;2.10;;;;;;;;;;2614127;54;20387;-77
2023/12/24 18:50:11;;;;;;;5.00;3.43;;;;;;;;;;2612575;54;20383;-77
2023/12/24 18:55:41;;;;;;;7.10;5.00;;;;;;;;;;2613626;54;20386;-77
2023/12/24 19:01:10;;;;;;;4.23;2.70;;;;;;;;;;2614391;39;20792;-78
2023/12/24 19:06:40;;;;;;;6.40;4.50;;;;;;;;;;2614830;54;20531;-78
2023/12/24 19:18:17;;;;;;;8.33;4.57;;;;;;;;;;2613316;54;20355;-75
2023/12/24 19:23:47;;;;;;;10.73;5.77;;;;;;;;;;2613018;54;20361;-76
2023/12/24 19:29:17;;;;;;;5.90;5.17;;;;;;;;;;2613411;54;20415;-76
2023/12/24 19:34:46;;;;;;;6.90;4.60;;;;;;;;;;2613677;54;20355;-78
2023/12/24 19:40:16;;;;;;;7.37;4.90;;;;;;;;;;2612588;54;20402;-76
2023/12/24 19:45:45;;;;;;;6.50;4.60;;;;;;;;;;2614104;54;20407;-76
2023/12/24 19:51:16;;;;;;;11.30;4.50;;;;;;;;;;2613044;54;20434;-76
2023/12/24 19:56:47;;;;;;;6.87;4.47;;;;;;;;;;2613107;54;20387;-76
2023/12/24 20:02:16;;;;;;;6.30;3.83;;;;;;;;;;2613533;39;20724;-76
2023/12/24 20:07:46;;;;;;;9.33;5.40;;;;;;;;;;2613653;54;20391;-77
2023/12/24 20:16:50;;;;;;;7.50;3.40;;;;;;;;;;2613508;54;20535;-77
2023/12/24 20:22:24;;;;;;;7.57;3.83;;;;;;;;;;2613376;39;20773;-76
2023/12/24 20:27:53;;;;;;;8.93;4.73;;;;;;;;;;2614598;54;20909;-76
2023/12/24 20:33:23;;;;;;;8.10;3.70;;;;;;;;;;2613616;54;20940;-77
2023/12/24 20:38:53;;;;;;;4.03;3.07;;;;;;;;;;2613462;46;20506;-78
2023/12/24 20:44:22;;;;;;;4.27;2.50;;;;;;;;;;2613595;54;20397;-76
2023/12/24 20:49:52;;;;;;;6.60;3.03;;;;;;;;;;2612980;54;20523;-76
2023/12/24 20:55:21;;;;;;;10.07;3.90;;;;;;;;;;2612979;54;20426;-77
2023/12/24 21:00:54;;;;;;;8.90;3.30;;;;;;;;;;2612994;54;20350;-76
2023/12/24 21:03:38;;;;;;;5.20;3.70;;;;;;;;;;2613787;31;20912;-77
2023/12/24 21:06:04;;;;;;;6.27;4.63;;;;;;;;;;2612843;54;20415;-78
2023/12/24 21:11:35;;;;;;;4.60;3.40;;;;;;;;;;2613695;54;20395;-78
2023/12/24 21:17:05;;;;;;;3.63;3.23;;;;;;;;;;2613815;54;20414;-79
2023/12/24 21:22:34;;;;;;;5.90;3.17;;;;;;;;;;2613108;54;20383;-77
2023/12/24 21:28:04;;;;;;;5.00;3.13;;;;;;;;;;2612957;54;20386;-77
2023/12/24 21:33:34;;;;;;;2.83;2.50;;;;;;;;;;2613267;54;20347;-77
2023/12/24 21:39:03;;;;;;;2.33;1.33;;;;;;;;;;2613209;54;20387;-76
2023/12/24 21:44:33;;;;;;;3.20;1.50;;;;;;;;;;2614085;54;20391;-76
2023/12/24 21:50:03;;;;;;;1.90;1.30;;;;;;;;;;2613093;54;20355;-79
2023/12/24 21:55:34;;;;;;;3.63;1.77;;;;;;;;;;2613305;54;20928;-76
2023/12/24 22:01:04;;;;;;;2.10;1.20;;;;;;;;;;2613207;54;20919;-77
2023/12/24 22:06:33;;;;;;;1.60;1.10;;;;;;;;;;2613561;54;20395;-77
2023/12/24 22:12:03;;;;;;;1.97;1.43;;;;;;;;;;2612665;54;20414;-77
2023/12/24 22:17:32;;;;;;;1.70;1.07;;;;;;;;;;2612920;54;20383;-77
2023/12/24 22:23:03;;;;;;;1.73;1.00;;;;;;;;;;2613152;54;20363;-78
2023/12/24 22:28:32;;;;;;;2.00;1.07;;;;;;;;;;2613113;54;20465;-78
2023/12/24 22:34:02;;;;;;;2.73;1.67;;;;;;;;;;2613061;54;20523;-77
2023/12/24 22:39:32;;;;;;;4.60;1.40;;;;;;;;;;2612791;54;20732;-78
2023/12/24 22:45:02;;;;;;;4.33;1.57;;;;;;;;;;2614459;39;20776;-77
2023/12/24 22:50:32;;;;;;;1.53;1.23;;;;;;;;;;2613595;54;20436;-78
2023/12/24 22:56:01;;;;;;;4.13;1.70;;;;;;;;;;2613891;54;20451;-76
2023/12/24 23:01:31;;;;;;;8.17;1.97;;;;;;;;;;2613739;54;20386;-77
2023/12/24 23:07:00;;;;;;;2.77;1.30;;;;;;;;;;2614334;54;20399;-77
2023/12/24 23:12:30;;;;;;;3.47;1.60;;;;;;;;;;2613655;54;20587;-77
2023/12/24 23:18:00;;;;;;;3.33;1.90;;;;;;;;;;2614274;54;20375;-76
2023/12/24 23:23:30;;;;;;;7.23;2.60;;;;;;;;;;2613186;54;20401;-76
2023/12/24 23:28:59;;;;;;;4.40;2.63;;;;;;;;;;2613845;39;20805;-77
2023/12/24 23:34:29;;;;;;;2.00;1.13;;;;;;;;;;2613492;54;20390;-76
2023/12/24 23:39:59;;;;;;;2.00;1.73;;;;;;;;;;2613466;54;20894;-76
2023/12/24 23:45:29;;;;;;;2.50;0.90;;;;;;;;;;2613836;54;20889;-77
2023/12/24 23:50:58;;;;;;;2.10;1.20;;;;;;;;;;2613912;54;20519;-77
2023/12/24 23:56:29;;;;;;;2.30;0.93;;;;;;;;;;2614027;54;20972;-77
